This is the latest recevied weather packets stored in our database for station/object K4AMF. If no packets are shown the sender has not sent any weather packets the latest 10 day(s).
| Time | Temp. | Humidity | Pressure | Rain* | Wind** | Luminosity | Snow |
|---|---|---|---|---|---|---|---|
| 1777926293 | 25° C | 51% | 1017.1 hPa | 0 mm | - | 556 W/m² | - |
| 1777925990 | 25° C | 52% | 1017.2 hPa | 0 mm | - | 579 W/m² | - |
| 1777925687 | 25.56° C | 49% | 1016.9 hPa | 0 mm | - | 602 W/m² | - |
| 1777925384 | 25.56° C | 49% | 1017 hPa | 0 mm | - | 590 W/m² | - |
| 1777925081 | 25° C | 50% | 1017.1 hPa | 0 mm | - | 570 W/m² | - |
| 1777924777 | 25° C | 50% | 1017.2 hPa | 0 mm | - | 609 W/m² | - |
| 1777924473 | 24.44° C | 51% | 1017 hPa | 0 mm | - | 617 W/m² | - |
| 1777924170 | 25° C | 51% | 1017.2 hPa | 0 mm | - | 113 W/m² | - |
| 1777923866 | 25.56° C | 49% | 1017.3 hPa | 0 mm | - | 143 W/m² | - |
| 1777923562 | 25.56° C | 49% | 1017.3 hPa | 0 mm | - | 643 W/m² | - |
| 1777923260 | 25° C | 49% | 1017.4 hPa | 0 mm | - | 134 W/m² | - |
| 1777922958 | 26.11° C | 47% | 1017.6 hPa | 0 mm | - | 638 W/m² | - |
| 1777922655 | 25.56° C | 48% | 1017.3 hPa | 0 mm | - | 642 W/m² | - |
| 1777922354 | 25.56° C | 45% | 1017.7 hPa | 0 mm | - | 650 W/m² | - |
| 1777922052 | 25° C | 43% | 1017.6 hPa | 0 mm | - | 663 W/m² | - |
| 1777921746 | 25.56° C | 44% | 1017.8 hPa | 0 mm | - | 648 W/m² | - |
| 1777921443 | 25.56° C | 43% | 1017.8 hPa | 0 mm | - | 636 W/m² | - |
| 1777921139 | 26.11° C | 43% | 1017.9 hPa | 0 mm | - | 649 W/m² | - |
| 1777920837 | 25.56° C | 44% | 1017.9 hPa | 0 mm | - | 656 W/m² | - |
| 1777920533 | 25.56° C | 43% | 1017.9 hPa | 0 mm | - | 654 W/m² | - |
| 1777920228 | 25° C | 46% | 1017.9 hPa | 0 mm | - | 645 W/m² | - |
| 1777919924 | 25.56° C | 43% | 1018.2 hPa | 0 mm | - | 657 W/m² | - |
| 1777919622 | 25° C | 45% | 1018.2 hPa | 0 mm | - | 684 W/m² | - |
| 1777919319 | 25° C | 44% | 1018.2 hPa | 0 mm | - | 706 W/m² | - |
| 1777919017 | 25° C | 44% | 1018.1 hPa | 0 mm | - | 699 W/m² | - |
* Rain latest hour (hover to see other rain measurements)
** Current wind speed in m/s (hover to see current wind gust speed)